<?xml version="1.0" encoding="UTF-8"?>
<gpx xmlns="http://www.topografix.com/GPX/1/1" xmlns:gpsies="http://www.gpsies.com/GPX/1/0" creator="GPSies http://www.gpsies.com - Tour 12) Gipfelsammlung - auf die 3 h&amp;#246;chsten Gipfel" version="1.1" xmlns:xsi="http://www.w3.org/2001/XMLSchema-instance" xsi:schemaLocation="http://www.topografix.com/GPX/1/1 http://www.topografix.com/GPX/1/1/gpx.xsd http://www.gpsies.com/GPX/1/0 http://www.gpsies.com/gpsies.xsd">
  <metadata>
    <name>Tour 12) Gipfelsammlung - auf die 3 höchsten Gipfel</name>
    <desc>Siehe Buch: (Foto)Wanderungen auf Krk, bod-Verlag, ISBN-Nr.: 978-3-7386-0336-1</desc>
    <author>
      <name>krkwanderer</name>
      <link href="http://www.gpsies.com/mapUser.do?username=krkwanderer">
        <text>krkwanderer on GPSies.com</text>
        <type>GPSiesUserOnWeb</type>
      </link>
    </author>
    <link href="http://www.gpsies.com/map.do?fileId=xvbfyguhsxqmfgxn">
      <text>Tour 12) Gipfelsammlung - auf die 3 höchsten Gipfel on GPSies.com</text>
      <type>trackOnWeb</type>
    </link>
    <time>2016-11-11T17:31:18Z</time>
    <extensions>
      <gpsies:property>round trip</gpsies:property>
      <gpsies:trackLengthMeter>10855.093327190092</gpsies:trackLengthMeter>
      <gpsies:totalAscentMeter>321.0</gpsies:totalAscentMeter>
      <gpsies:totalDescentMeter>321.0</gpsies:totalDescentMeter>
      <gpsies:minHeightMeter>318.0</gpsies:minHeightMeter>
      <gpsies:maxHeightMeter>559.0</gpsies:maxHeightMeter>
    </extensions>
  </metadata>
  <trk>
    <name>Tour 12) Gipfelsammlung - auf die 3 höchsten Gipfel on GPSies.com</name>
    <link href="http://www.gpsies.com/map.do?fileId=xvbfyguhsxqmfgxn">
      <type>trackOnWeb</type>
    </link>
    <link href="http://www.gpsies.com/charts/xv/map/xvbfyguhsxqmfgxn_map.png">
      <type>elevationChartUrlMap</type>
    </link>
    <link href="http://www.gpsies.com/charts/xv/mapThumb/xvbfyguhsxqmfgxn_mapThumb.png">
      <type>elevationChartUrlMapThumb</type>
    </link>
    <link href="http://www.gpsies.com/charts/xv/tab/xvbfyguhsxqmfgxn_tab.png">
      <type>elevationChartUrlTab</type>
    </link>
    <trkseg>
      <trkpt lat="45.02989250" lon="14.67142580">
        <ele>318.00000</ele>
        <time>2010-01-01T00:00:00Z</time>
      </trkpt>
      <trkpt lat="45.02889160" lon="14.67211240">
        <ele>321.00000</ele>
        <time>2010-01-01T00:00:27Z</time>
      </trkpt>
      <trkpt lat="45.02888000" lon="14.67209000">
        <ele>321.00000</ele>
        <time>2010-01-01T00:00:28Z</time>
      </trkpt>
      <trkpt lat="45.02834000" lon="14.67244000">
        <ele>323.00000</ele>
        <time>2010-01-01T00:00:42Z</time>
      </trkpt>
      <trkpt lat="45.02773000" lon="14.67266000">
        <ele>330.00000</ele>
        <time>2010-01-01T00:00:58Z</time>
      </trkpt>
      <trkpt lat="45.02713000" lon="14.67264000">
        <ele>339.00000</ele>
        <time>2010-01-01T00:01:13Z</time>
      </trkpt>
      <trkpt lat="45.02677000" lon="14.67268000">
        <ele>343.00000</ele>
        <time>2010-01-01T00:01:22Z</time>
      </trkpt>
      <trkpt lat="45.02568000" lon="14.67364000">
        <ele>353.00000</ele>
        <time>2010-01-01T00:01:54Z</time>
      </trkpt>
      <trkpt lat="45.02548000" lon="14.67371000">
        <ele>354.00000</ele>
        <time>2010-01-01T00:01:59Z</time>
      </trkpt>
      <trkpt lat="45.02501000" lon="14.67361000">
        <ele>353.00000</ele>
        <time>2010-01-01T00:02:11Z</time>
      </trkpt>
      <trkpt lat="45.02464000" lon="14.67356000">
        <ele>352.00000</ele>
        <time>2010-01-01T00:02:20Z</time>
      </trkpt>
      <trkpt lat="45.02429000" lon="14.67363000">
        <ele>351.00000</ele>
        <time>2010-01-01T00:02:29Z</time>
      </trkpt>
      <trkpt lat="45.02385000" lon="14.67391000">
        <ele>351.00000</ele>
        <time>2010-01-01T00:02:41Z</time>
      </trkpt>
      <trkpt lat="45.02355000" lon="14.67396000">
        <ele>351.00000</ele>
        <time>2010-01-01T00:02:48Z</time>
      </trkpt>
      <trkpt lat="45.02289000" lon="14.67375000">
        <ele>355.00000</ele>
        <time>2010-01-01T00:03:05Z</time>
      </trkpt>
      <trkpt lat="45.02268000" lon="14.67384000">
        <ele>358.00000</ele>
        <time>2010-01-01T00:03:11Z</time>
      </trkpt>
      <trkpt lat="45.02248000" lon="14.67406000">
        <ele>362.00000</ele>
        <time>2010-01-01T00:03:17Z</time>
      </trkpt>
      <trkpt lat="45.02141000" lon="14.67348000">
        <ele>371.00000</ele>
        <time>2010-01-01T00:03:46Z</time>
      </trkpt>
      <trkpt lat="45.02079000" lon="14.67343000">
        <ele>377.00000</ele>
        <time>2010-01-01T00:04:01Z</time>
      </trkpt>
      <trkpt lat="45.02042000" lon="14.67350000">
        <ele>382.00000</ele>
        <time>2010-01-01T00:04:10Z</time>
      </trkpt>
      <trkpt lat="45.01907000" lon="14.67384000">
        <ele>398.00000</ele>
        <time>2010-01-01T00:04:44Z</time>
      </trkpt>
      <trkpt lat="45.01862000" lon="14.67401000">
        <ele>403.00000</ele>
        <time>2010-01-01T00:04:56Z</time>
      </trkpt>
      <trkpt lat="45.01850000" lon="14.67403000">
        <ele>405.00000</ele>
        <time>2010-01-01T00:04:59Z</time>
      </trkpt>
      <trkpt lat="45.01817000" lon="14.67423000">
        <ele>407.00000</ele>
        <time>2010-01-01T00:05:08Z</time>
      </trkpt>
      <trkpt lat="45.01797000" lon="14.67439000">
        <ele>407.00000</ele>
        <time>2010-01-01T00:05:14Z</time>
      </trkpt>
      <trkpt lat="45.01761000" lon="14.67475000">
        <ele>409.00000</ele>
        <time>2010-01-01T00:05:25Z</time>
      </trkpt>
      <trkpt lat="45.01723000" lon="14.67502000">
        <ele>412.00000</ele>
        <time>2010-01-01T00:05:35Z</time>
      </trkpt>
      <trkpt lat="45.01711000" lon="14.67528000">
        <ele>415.00000</ele>
        <time>2010-01-01T00:05:41Z</time>
      </trkpt>
      <trkpt lat="45.01687950" lon="14.67610350">
        <ele>422.00000</ele>
        <time>2010-01-01T00:05:56Z</time>
      </trkpt>
      <trkpt lat="45.01692000" lon="14.67610000">
        <ele>422.00000</ele>
        <time>2010-01-01T00:05:57Z</time>
      </trkpt>
      <trkpt lat="45.01692000" lon="14.67643000">
        <ele>423.00000</ele>
        <time>2010-01-01T00:06:03Z</time>
      </trkpt>
      <trkpt lat="45.01667000" lon="14.67702000">
        <ele>427.00000</ele>
        <time>2010-01-01T00:06:15Z</time>
      </trkpt>
      <trkpt lat="45.01668000" lon="14.67743000">
        <ele>429.00000</ele>
        <time>2010-01-01T00:06:22Z</time>
      </trkpt>
      <trkpt lat="45.01664000" lon="14.67757000">
        <ele>430.00000</ele>
        <time>2010-01-01T00:06:25Z</time>
      </trkpt>
      <trkpt lat="45.01657000" lon="14.67756000">
        <ele>432.00000</ele>
        <time>2010-01-01T00:06:27Z</time>
      </trkpt>
      <trkpt lat="45.01651000" lon="14.67747000">
        <ele>433.00000</ele>
        <time>2010-01-01T00:06:29Z</time>
      </trkpt>
      <trkpt lat="45.01610000" lon="14.67707000">
        <ele>437.00000</ele>
        <time>2010-01-01T00:06:41Z</time>
      </trkpt>
      <trkpt lat="45.01572000" lon="14.67690000">
        <ele>440.00000</ele>
        <time>2010-01-01T00:06:51Z</time>
      </trkpt>
      <trkpt lat="45.01542000" lon="14.67690000">
        <ele>441.00000</ele>
        <time>2010-01-01T00:06:59Z</time>
      </trkpt>
      <trkpt lat="45.01500000" lon="14.67715000">
        <ele>444.00000</ele>
        <time>2010-01-01T00:07:10Z</time>
      </trkpt>
      <trkpt lat="45.01494000" lon="14.67721000">
        <ele>444.00000</ele>
        <time>2010-01-01T00:07:12Z</time>
      </trkpt>
      <trkpt lat="45.01529000" lon="14.67845000">
        <ele>445.00000</ele>
        <time>2010-01-01T00:07:35Z</time>
      </trkpt>
      <trkpt lat="45.01536000" lon="14.67859000">
        <ele>441.00000</ele>
        <time>2010-01-01T00:07:38Z</time>
      </trkpt>
      <trkpt lat="45.01536000" lon="14.67858000">
        <ele>442.00000</ele>
        <time>2010-01-01T00:07:39Z</time>
      </trkpt>
      <trkpt lat="45.01529000" lon="14.67845000">
        <ele>445.00000</ele>
        <time>2010-01-01T00:07:41Z</time>
      </trkpt>
      <trkpt lat="45.01494000" lon="14.67721000">
        <ele>444.00000</ele>
        <time>2010-01-01T00:08:05Z</time>
      </trkpt>
      <trkpt lat="45.01427000" lon="14.67626000">
        <ele>431.00000</ele>
        <time>2010-01-01T00:08:29Z</time>
      </trkpt>
      <trkpt lat="45.01417000" lon="14.67610000">
        <ele>430.00000</ele>
        <time>2010-01-01T00:08:32Z</time>
      </trkpt>
      <trkpt lat="45.01411000" lon="14.67594000">
        <ele>429.00000</ele>
        <time>2010-01-01T00:08:35Z</time>
      </trkpt>
      <trkpt lat="45.01408000" lon="14.67580000">
        <ele>428.00000</ele>
        <time>2010-01-01T00:08:38Z</time>
      </trkpt>
      <trkpt lat="45.01424000" lon="14.67542000">
        <ele>426.00000</ele>
        <time>2010-01-01T00:08:46Z</time>
      </trkpt>
      <trkpt lat="45.01442000" lon="14.67521000">
        <ele>425.00000</ele>
        <time>2010-01-01T00:08:52Z</time>
      </trkpt>
      <trkpt lat="45.01432000" lon="14.67461000">
        <ele>422.00000</ele>
        <time>2010-01-01T00:09:02Z</time>
      </trkpt>
      <trkpt lat="45.01431000" lon="14.67461000">
        <ele>422.00000</ele>
        <time>2010-01-01T00:09:03Z</time>
      </trkpt>
      <trkpt lat="45.01433000" lon="14.67470000">
        <ele>423.00000</ele>
        <time>2010-01-01T00:09:04Z</time>
      </trkpt>
      <trkpt lat="45.01409000" lon="14.67453000">
        <ele>422.00000</ele>
        <time>2010-01-01T00:09:11Z</time>
      </trkpt>
      <trkpt lat="45.01366000" lon="14.67447000">
        <ele>423.00000</ele>
        <time>2010-01-01T00:09:22Z</time>
      </trkpt>
      <trkpt lat="45.01333000" lon="14.67471000">
        <ele>424.00000</ele>
        <time>2010-01-01T00:09:31Z</time>
      </trkpt>
      <trkpt lat="45.01310000" lon="14.67471000">
        <ele>426.00000</ele>
        <time>2010-01-01T00:09:37Z</time>
      </trkpt>
      <trkpt lat="45.01278000" lon="14.67476000">
        <ele>428.00000</ele>
        <time>2010-01-01T00:09:45Z</time>
      </trkpt>
      <trkpt lat="45.01250000" lon="14.67500000">
        <ele>431.00000</ele>
        <time>2010-01-01T00:09:53Z</time>
      </trkpt>
      <trkpt lat="45.01228000" lon="14.67512000">
        <ele>433.00000</ele>
        <time>2010-01-01T00:09:59Z</time>
      </trkpt>
      <trkpt lat="45.01202000" lon="14.67521000">
        <ele>436.00000</ele>
        <time>2010-01-01T00:10:05Z</time>
      </trkpt>
      <trkpt lat="45.01186000" lon="14.67490000">
        <ele>437.00000</ele>
        <time>2010-01-01T00:10:12Z</time>
      </trkpt>
      <trkpt lat="45.01184000" lon="14.67431000">
        <ele>436.00000</ele>
        <time>2010-01-01T00:10:23Z</time>
      </trkpt>
      <trkpt lat="45.01177000" lon="14.67400000">
        <ele>436.00000</ele>
        <time>2010-01-01T00:10:28Z</time>
      </trkpt>
      <trkpt lat="45.01177000" lon="14.67399000">
        <ele>436.00000</ele>
        <time>2010-01-01T00:10:28Z</time>
      </trkpt>
      <trkpt lat="45.01165000" lon="14.67341000">
        <ele>434.00000</ele>
        <time>2010-01-01T00:10:39Z</time>
      </trkpt>
      <trkpt lat="45.01140000" lon="14.67317000">
        <ele>437.00000</ele>
        <time>2010-01-01T00:10:47Z</time>
      </trkpt>
      <trkpt lat="45.01112000" lon="14.67273000">
        <ele>440.00000</ele>
        <time>2010-01-01T00:10:57Z</time>
      </trkpt>
      <trkpt lat="45.01094000" lon="14.67268000">
        <ele>442.00000</ele>
        <time>2010-01-01T00:11:02Z</time>
      </trkpt>
      <trkpt lat="45.01058000" lon="14.67295000">
        <ele>448.00000</ele>
        <time>2010-01-01T00:11:12Z</time>
      </trkpt>
      <trkpt lat="45.01039000" lon="14.67295000">
        <ele>450.00000</ele>
        <time>2010-01-01T00:11:16Z</time>
      </trkpt>
      <trkpt lat="45.00991000" lon="14.67270000">
        <ele>456.00000</ele>
        <time>2010-01-01T00:11:29Z</time>
      </trkpt>
      <trkpt lat="45.00975000" lon="14.67273000">
        <ele>458.00000</ele>
        <time>2010-01-01T00:11:33Z</time>
      </trkpt>
      <trkpt lat="45.00953000" lon="14.67287000">
        <ele>462.00000</ele>
        <time>2010-01-01T00:11:39Z</time>
      </trkpt>
      <trkpt lat="45.00927000" lon="14.67267000">
        <ele>464.00000</ele>
        <time>2010-01-01T00:11:47Z</time>
      </trkpt>
      <trkpt lat="45.00914000" lon="14.67275000">
        <ele>466.00000</ele>
        <time>2010-01-01T00:11:50Z</time>
      </trkpt>
      <trkpt lat="45.00880000" lon="14.67274000">
        <ele>472.00000</ele>
        <time>2010-01-01T00:11:59Z</time>
      </trkpt>
      <trkpt lat="45.00852000" lon="14.67297000">
        <ele>479.00000</ele>
        <time>2010-01-01T00:12:07Z</time>
      </trkpt>
      <trkpt lat="45.00832000" lon="14.67301000">
        <ele>483.00000</ele>
        <time>2010-01-01T00:12:12Z</time>
      </trkpt>
      <trkpt lat="45.00829000" lon="14.67299000">
        <ele>483.00000</ele>
        <time>2010-01-01T00:12:12Z</time>
      </trkpt>
      <trkpt lat="45.00828000" lon="14.67299000">
        <ele>483.00000</ele>
        <time>2010-01-01T00:12:13Z</time>
      </trkpt>
      <trkpt lat="45.00832000" lon="14.67301000">
        <ele>483.00000</ele>
        <time>2010-01-01T00:12:14Z</time>
      </trkpt>
      <trkpt lat="45.00852000" lon="14.67297000">
        <ele>479.00000</ele>
        <time>2010-01-01T00:12:19Z</time>
      </trkpt>
      <trkpt lat="45.00838000" lon="14.67307000">
        <ele>483.00000</ele>
        <time>2010-01-01T00:12:23Z</time>
      </trkpt>
      <trkpt lat="45.00824000" lon="14.67307000">
        <ele>485.00000</ele>
        <time>2010-01-01T00:12:26Z</time>
      </trkpt>
      <trkpt lat="45.00803000" lon="14.67330000">
        <ele>490.00000</ele>
        <time>2010-01-01T00:12:33Z</time>
      </trkpt>
      <trkpt lat="45.00806000" lon="14.67338000">
        <ele>491.00000</ele>
        <time>2010-01-01T00:12:34Z</time>
      </trkpt>
      <trkpt lat="45.00803000" lon="14.67344000">
        <ele>492.00000</ele>
        <time>2010-01-01T00:12:36Z</time>
      </trkpt>
      <trkpt lat="45.00807000" lon="14.67367000">
        <ele>493.00000</ele>
        <time>2010-01-01T00:12:40Z</time>
      </trkpt>
      <trkpt lat="45.00798000" lon="14.67380000">
        <ele>496.00000</ele>
        <time>2010-01-01T00:12:43Z</time>
      </trkpt>
      <trkpt lat="45.00797000" lon="14.67393000">
        <ele>497.00000</ele>
        <time>2010-01-01T00:12:45Z</time>
      </trkpt>
      <trkpt lat="45.00763000" lon="14.67422000">
        <ele>506.00000</ele>
        <time>2010-01-01T00:12:55Z</time>
      </trkpt>
      <trkpt lat="45.00770000" lon="14.67439000">
        <ele>507.00000</ele>
        <time>2010-01-01T00:12:59Z</time>
      </trkpt>
      <trkpt lat="45.00744000" lon="14.67460000">
        <ele>513.00000</ele>
        <time>2010-01-01T00:13:06Z</time>
      </trkpt>
      <trkpt lat="45.00741000" lon="14.67472000">
        <ele>515.00000</ele>
        <time>2010-01-01T00:13:08Z</time>
      </trkpt>
      <trkpt lat="45.00741000" lon="14.67518000">
        <ele>519.00000</ele>
        <time>2010-01-01T00:13:16Z</time>
      </trkpt>
      <trkpt lat="45.00737000" lon="14.67525000">
        <ele>520.00000</ele>
        <time>2010-01-01T00:13:18Z</time>
      </trkpt>
      <trkpt lat="45.00722000" lon="14.67533000">
        <ele>522.00000</ele>
        <time>2010-01-01T00:13:22Z</time>
      </trkpt>
      <trkpt lat="45.00716000" lon="14.67548000">
        <ele>523.00000</ele>
        <time>2010-01-01T00:13:25Z</time>
      </trkpt>
      <trkpt lat="45.00707000" lon="14.67559000">
        <ele>525.00000</ele>
        <time>2010-01-01T00:13:28Z</time>
      </trkpt>
      <trkpt lat="45.00701000" lon="14.67588000">
        <ele>527.00000</ele>
        <time>2010-01-01T00:13:33Z</time>
      </trkpt>
      <trkpt lat="45.00685000" lon="14.67616000">
        <ele>529.00000</ele>
        <time>2010-01-01T00:13:40Z</time>
      </trkpt>
      <trkpt lat="45.00611000" lon="14.67616000">
        <ele>528.00000</ele>
        <time>2010-01-01T00:13:58Z</time>
      </trkpt>
      <trkpt lat="45.00579000" lon="14.67643000">
        <ele>527.00000</ele>
        <time>2010-01-01T00:14:07Z</time>
      </trkpt>
      <trkpt lat="45.00534000" lon="14.67665000">
        <ele>524.00000</ele>
        <time>2010-01-01T00:14:19Z</time>
      </trkpt>
      <trkpt lat="45.00471000" lon="14.67695000">
        <ele>519.00000</ele>
        <time>2010-01-01T00:14:36Z</time>
      </trkpt>
      <trkpt lat="45.00415000" lon="14.67770000">
        <ele>515.00000</ele>
        <time>2010-01-01T00:14:55Z</time>
      </trkpt>
      <trkpt lat="45.00394000" lon="14.67765000">
        <ele>514.00000</ele>
        <time>2010-01-01T00:15:00Z</time>
      </trkpt>
      <trkpt lat="45.00375000" lon="14.67772000">
        <ele>513.00000</ele>
        <time>2010-01-01T00:15:05Z</time>
      </trkpt>
      <trkpt lat="45.00335000" lon="14.67764000">
        <ele>512.00000</ele>
        <time>2010-01-01T00:15:15Z</time>
      </trkpt>
      <trkpt lat="45.00319000" lon="14.67797000">
        <ele>511.00000</ele>
        <time>2010-01-01T00:15:22Z</time>
      </trkpt>
      <trkpt lat="45.00297000" lon="14.67819000">
        <ele>509.00000</ele>
        <time>2010-01-01T00:15:29Z</time>
      </trkpt>
      <trkpt lat="45.00283000" lon="14.67876000">
        <ele>505.00000</ele>
        <time>2010-01-01T00:15:39Z</time>
      </trkpt>
      <trkpt lat="45.00237000" lon="14.67957000">
        <ele>499.00000</ele>
        <time>2010-01-01T00:15:58Z</time>
      </trkpt>
      <trkpt lat="45.00186080" lon="14.67957970">
        <ele>502.00000</ele>
        <time>2010-01-01T00:16:10Z</time>
      </trkpt>
      <trkpt lat="45.00107180" lon="14.68013760">
        <ele>515.00000</ele>
        <time>2010-01-01T00:16:32Z</time>
      </trkpt>
      <trkpt lat="45.00070770" lon="14.68035220">
        <ele>522.00000</ele>
        <time>2010-01-01T00:16:42Z</time>
      </trkpt>
      <trkpt lat="45.00066220" lon="14.68082420">
        <ele>526.00000</ele>
        <time>2010-01-01T00:16:51Z</time>
      </trkpt>
      <trkpt lat="45.00035870" lon="14.68127480">
        <ele>532.00000</ele>
        <time>2010-01-01T00:17:02Z</time>
      </trkpt>
      <trkpt lat="45.00002490" lon="14.68118900">
        <ele>536.00000</ele>
        <time>2010-01-01T00:17:10Z</time>
      </trkpt>
      <trkpt lat="44.99964560" lon="14.68114610">
        <ele>539.00000</ele>
        <time>2010-01-01T00:17:19Z</time>
      </trkpt>
      <trkpt lat="44.99929660" lon="14.68106030">
        <ele>540.00000</ele>
        <time>2010-01-01T00:17:28Z</time>
      </trkpt>
      <trkpt lat="44.99906900" lon="14.68118900">
        <ele>542.00000</ele>
        <time>2010-01-01T00:17:34Z</time>
      </trkpt>
      <trkpt lat="44.99903870" lon="14.68153230">
        <ele>544.00000</ele>
        <time>2010-01-01T00:17:40Z</time>
      </trkpt>
      <trkpt lat="44.99917520" lon="14.68178980">
        <ele>546.00000</ele>
        <time>2010-01-01T00:17:46Z</time>
      </trkpt>
      <trkpt lat="44.99914490" lon="14.68215460">
        <ele>545.00000</ele>
        <time>2010-01-01T00:17:53Z</time>
      </trkpt>
      <trkpt lat="44.99899310" lon="14.68230480">
        <ele>546.00000</ele>
        <time>2010-01-01T00:17:57Z</time>
      </trkpt>
      <trkpt lat="44.99849240" lon="14.68269100">
        <ele>547.00000</ele>
        <time>2010-01-01T00:18:11Z</time>
      </trkpt>
      <trkpt lat="44.99812830" lon="14.68269100">
        <ele>546.00000</ele>
        <time>2010-01-01T00:18:20Z</time>
      </trkpt>
      <trkpt lat="44.99787030" lon="14.68277690">
        <ele>544.00000</ele>
        <time>2010-01-01T00:18:27Z</time>
      </trkpt>
      <trkpt lat="44.99758200" lon="14.68273400">
        <ele>541.00000</ele>
        <time>2010-01-01T00:18:34Z</time>
      </trkpt>
      <trkpt lat="44.99738480" lon="14.68277690">
        <ele>540.00000</ele>
        <time>2010-01-01T00:18:39Z</time>
      </trkpt>
      <trkpt lat="44.99723300" lon="14.68299150">
        <ele>538.00000</ele>
        <time>2010-01-01T00:18:45Z</time>
      </trkpt>
      <trkpt lat="44.99702060" lon="14.68292710">
        <ele>537.00000</ele>
        <time>2010-01-01T00:18:50Z</time>
      </trkpt>
      <trkpt lat="44.99683850" lon="14.68307730">
        <ele>535.00000</ele>
        <time>2010-01-01T00:18:55Z</time>
      </trkpt>
      <trkpt lat="44.99658060" lon="14.68333480">
        <ele>534.00000</ele>
        <time>2010-01-01T00:19:03Z</time>
      </trkpt>
      <trkpt lat="44.99651990" lon="14.68367810">
        <ele>533.00000</ele>
        <time>2010-01-01T00:19:09Z</time>
      </trkpt>
      <trkpt lat="44.99604950" lon="14.68382830">
        <ele>533.00000</ele>
        <time>2010-01-01T00:19:21Z</time>
      </trkpt>
      <trkpt lat="44.99563980" lon="14.68434330">
        <ele>537.00000</ele>
        <time>2010-01-01T00:19:35Z</time>
      </trkpt>
      <trkpt lat="44.99557910" lon="14.68460080">
        <ele>539.00000</ele>
        <time>2010-01-01T00:19:40Z</time>
      </trkpt>
      <trkpt lat="44.99500250" lon="14.68595260">
        <ele>557.00000</ele>
        <time>2010-01-01T00:20:07Z</time>
      </trkpt>
      <trkpt lat="44.99462310" lon="14.68653200">
        <ele>557.00000</ele>
        <time>2010-01-01T00:20:21Z</time>
      </trkpt>
      <trkpt lat="44.99428930" lon="14.68728300">
        <ele>559.00000</ele>
        <time>2010-01-01T00:20:37Z</time>
      </trkpt>
      <trkpt lat="44.99433000" lon="14.68720000">
        <ele>558.00000</ele>
        <time>2010-01-01T00:20:39Z</time>
      </trkpt>
      <trkpt lat="44.99428000" lon="14.68713000">
        <ele>558.00000</ele>
        <time>2010-01-01T00:20:40Z</time>
      </trkpt>
      <trkpt lat="44.99434000" lon="14.68637000">
        <ele>557.00000</ele>
        <time>2010-01-01T00:20:54Z</time>
      </trkpt>
      <trkpt lat="44.99389000" lon="14.68535000">
        <ele>548.00000</ele>
        <time>2010-01-01T00:21:15Z</time>
      </trkpt>
      <trkpt lat="44.99359000" lon="14.68457000">
        <ele>537.00000</ele>
        <time>2010-01-01T00:21:31Z</time>
      </trkpt>
      <trkpt lat="44.99398000" lon="14.68333000">
        <ele>531.00000</ele>
        <time>2010-01-01T00:21:55Z</time>
      </trkpt>
      <trkpt lat="44.99350000" lon="14.68168000">
        <ele>516.00000</ele>
        <time>2010-01-01T00:22:26Z</time>
      </trkpt>
      <trkpt lat="44.99387000" lon="14.68096000">
        <ele>518.00000</ele>
        <time>2010-01-01T00:22:42Z</time>
      </trkpt>
      <trkpt lat="44.99410000" lon="14.68085000">
        <ele>520.00000</ele>
        <time>2010-01-01T00:22:48Z</time>
      </trkpt>
      <trkpt lat="44.99449000" lon="14.68046000">
        <ele>521.00000</ele>
        <time>2010-01-01T00:23:00Z</time>
      </trkpt>
      <trkpt lat="44.99535000" lon="14.68005000">
        <ele>518.00000</ele>
        <time>2010-01-01T00:23:22Z</time>
      </trkpt>
      <trkpt lat="44.99588000" lon="14.67933000">
        <ele>516.00000</ele>
        <time>2010-01-01T00:23:40Z</time>
      </trkpt>
      <trkpt lat="44.99687000" lon="14.67820000">
        <ele>508.00000</ele>
        <time>2010-01-01T00:24:12Z</time>
      </trkpt>
      <trkpt lat="44.99761000" lon="14.67776000">
        <ele>503.00000</ele>
        <time>2010-01-01T00:24:32Z</time>
      </trkpt>
      <trkpt lat="44.99824000" lon="14.67627000">
        <ele>494.00000</ele>
        <time>2010-01-01T00:25:03Z</time>
      </trkpt>
      <trkpt lat="44.99911000" lon="14.67525000">
        <ele>489.00000</ele>
        <time>2010-01-01T00:25:31Z</time>
      </trkpt>
      <trkpt lat="44.99947000" lon="14.67511000">
        <ele>488.00000</ele>
        <time>2010-01-01T00:25:40Z</time>
      </trkpt>
      <trkpt lat="44.99949000" lon="14.67512000">
        <ele>488.00000</ele>
        <time>2010-01-01T00:25:41Z</time>
      </trkpt>
      <trkpt lat="44.99948000" lon="14.67512000">
        <ele>488.00000</ele>
        <time>2010-01-01T00:25:41Z</time>
      </trkpt>
      <trkpt lat="44.99989000" lon="14.67522000">
        <ele>487.00000</ele>
        <time>2010-01-01T00:25:51Z</time>
      </trkpt>
      <trkpt lat="45.00190000" lon="14.67302000">
        <ele>490.00000</ele>
        <time>2010-01-01T00:26:54Z</time>
      </trkpt>
      <trkpt lat="45.00376000" lon="14.67197000">
        <ele>474.00000</ele>
        <time>2010-01-01T00:27:44Z</time>
      </trkpt>
      <trkpt lat="45.00446000" lon="14.67180000">
        <ele>471.00000</ele>
        <time>2010-01-01T00:28:02Z</time>
      </trkpt>
      <trkpt lat="45.00545000" lon="14.67175000">
        <ele>473.00000</ele>
        <time>2010-01-01T00:28:26Z</time>
      </trkpt>
      <trkpt lat="45.00604000" lon="14.67164000">
        <ele>476.00000</ele>
        <time>2010-01-01T00:28:41Z</time>
      </trkpt>
      <trkpt lat="45.00623000" lon="14.67208000">
        <ele>481.00000</ele>
        <time>2010-01-01T00:28:50Z</time>
      </trkpt>
      <trkpt lat="45.00671000" lon="14.67218000">
        <ele>486.00000</ele>
        <time>2010-01-01T00:29:02Z</time>
      </trkpt>
      <trkpt lat="45.00688000" lon="14.67243000">
        <ele>488.00000</ele>
        <time>2010-01-01T00:29:09Z</time>
      </trkpt>
      <trkpt lat="45.00687000" lon="14.67243000">
        <ele>488.00000</ele>
        <time>2010-01-01T00:29:09Z</time>
      </trkpt>
      <trkpt lat="45.00688000" lon="14.67244000">
        <ele>488.00000</ele>
        <time>2010-01-01T00:29:09Z</time>
      </trkpt>
      <trkpt lat="45.00714000" lon="14.67241000">
        <ele>489.00000</ele>
        <time>2010-01-01T00:29:16Z</time>
      </trkpt>
      <trkpt lat="45.00723000" lon="14.67248000">
        <ele>490.00000</ele>
        <time>2010-01-01T00:29:18Z</time>
      </trkpt>
      <trkpt lat="45.00752000" lon="14.67218000">
        <ele>489.00000</ele>
        <time>2010-01-01T00:29:27Z</time>
      </trkpt>
      <trkpt lat="45.00738000" lon="14.67156000">
        <ele>486.00000</ele>
        <time>2010-01-01T00:29:39Z</time>
      </trkpt>
      <trkpt lat="45.00752000" lon="14.67218000">
        <ele>489.00000</ele>
        <time>2010-01-01T00:29:50Z</time>
      </trkpt>
      <trkpt lat="45.00723000" lon="14.67248000">
        <ele>490.00000</ele>
        <time>2010-01-01T00:29:59Z</time>
      </trkpt>
      <trkpt lat="45.00736000" lon="14.67263000">
        <ele>491.00000</ele>
        <time>2010-01-01T00:30:03Z</time>
      </trkpt>
      <trkpt lat="45.00746000" lon="14.67269000">
        <ele>492.00000</ele>
        <time>2010-01-01T00:30:06Z</time>
      </trkpt>
      <trkpt lat="45.00789000" lon="14.67269000">
        <ele>486.00000</ele>
        <time>2010-01-01T00:30:16Z</time>
      </trkpt>
      <trkpt lat="45.00832000" lon="14.67301000">
        <ele>483.00000</ele>
        <time>2010-01-01T00:30:29Z</time>
      </trkpt>
      <trkpt lat="45.00852000" lon="14.67297000">
        <ele>479.00000</ele>
        <time>2010-01-01T00:30:34Z</time>
      </trkpt>
      <trkpt lat="45.00880000" lon="14.67274000">
        <ele>472.00000</ele>
        <time>2010-01-01T00:30:42Z</time>
      </trkpt>
      <trkpt lat="45.00914000" lon="14.67275000">
        <ele>466.00000</ele>
        <time>2010-01-01T00:30:50Z</time>
      </trkpt>
      <trkpt lat="45.00927000" lon="14.67267000">
        <ele>464.00000</ele>
        <time>2010-01-01T00:30:54Z</time>
      </trkpt>
      <trkpt lat="45.00953000" lon="14.67287000">
        <ele>462.00000</ele>
        <time>2010-01-01T00:31:01Z</time>
      </trkpt>
      <trkpt lat="45.00953000" lon="14.67286000">
        <ele>461.00000</ele>
        <time>2010-01-01T00:31:01Z</time>
      </trkpt>
      <trkpt lat="45.00975000" lon="14.67273000">
        <ele>458.00000</ele>
        <time>2010-01-01T00:31:07Z</time>
      </trkpt>
      <trkpt lat="45.00991000" lon="14.67270000">
        <ele>456.00000</ele>
        <time>2010-01-01T00:31:11Z</time>
      </trkpt>
      <trkpt lat="45.01039000" lon="14.67295000">
        <ele>450.00000</ele>
        <time>2010-01-01T00:31:24Z</time>
      </trkpt>
      <trkpt lat="45.01058000" lon="14.67295000">
        <ele>448.00000</ele>
        <time>2010-01-01T00:31:29Z</time>
      </trkpt>
      <trkpt lat="45.01094000" lon="14.67268000">
        <ele>442.00000</ele>
        <time>2010-01-01T00:31:39Z</time>
      </trkpt>
      <trkpt lat="45.01112000" lon="14.67273000">
        <ele>440.00000</ele>
        <time>2010-01-01T00:31:43Z</time>
      </trkpt>
      <trkpt lat="45.01140000" lon="14.67317000">
        <ele>437.00000</ele>
        <time>2010-01-01T00:31:54Z</time>
      </trkpt>
      <trkpt lat="45.01165000" lon="14.67341000">
        <ele>434.00000</ele>
        <time>2010-01-01T00:32:01Z</time>
      </trkpt>
      <trkpt lat="45.01184000" lon="14.67431000">
        <ele>436.00000</ele>
        <time>2010-01-01T00:32:18Z</time>
      </trkpt>
      <trkpt lat="45.01186000" lon="14.67490000">
        <ele>437.00000</ele>
        <time>2010-01-01T00:32:28Z</time>
      </trkpt>
      <trkpt lat="45.01202000" lon="14.67521000">
        <ele>436.00000</ele>
        <time>2010-01-01T00:32:35Z</time>
      </trkpt>
      <trkpt lat="45.01228000" lon="14.67512000">
        <ele>433.00000</ele>
        <time>2010-01-01T00:32:42Z</time>
      </trkpt>
      <trkpt lat="45.01250000" lon="14.67500000">
        <ele>431.00000</ele>
        <time>2010-01-01T00:32:47Z</time>
      </trkpt>
      <trkpt lat="45.01278000" lon="14.67476000">
        <ele>428.00000</ele>
        <time>2010-01-01T00:32:56Z</time>
      </trkpt>
      <trkpt lat="45.01310000" lon="14.67471000">
        <ele>426.00000</ele>
        <time>2010-01-01T00:33:04Z</time>
      </trkpt>
      <trkpt lat="45.01326000" lon="14.67471000">
        <ele>425.00000</ele>
        <time>2010-01-01T00:33:08Z</time>
      </trkpt>
      <trkpt lat="45.01333000" lon="14.67471000">
        <ele>424.00000</ele>
        <time>2010-01-01T00:33:09Z</time>
      </trkpt>
      <trkpt lat="45.01366000" lon="14.67447000">
        <ele>423.00000</ele>
        <time>2010-01-01T00:33:19Z</time>
      </trkpt>
      <trkpt lat="45.01409000" lon="14.67453000">
        <ele>422.00000</ele>
        <time>2010-01-01T00:33:29Z</time>
      </trkpt>
      <trkpt lat="45.01433000" lon="14.67470000">
        <ele>423.00000</ele>
        <time>2010-01-01T00:33:36Z</time>
      </trkpt>
      <trkpt lat="45.01442000" lon="14.67461000">
        <ele>422.00000</ele>
        <time>2010-01-01T00:33:39Z</time>
      </trkpt>
      <trkpt lat="45.01471000" lon="14.67467000">
        <ele>422.00000</ele>
        <time>2010-01-01T00:33:46Z</time>
      </trkpt>
      <trkpt lat="45.01505000" lon="14.67459000">
        <ele>420.00000</ele>
        <time>2010-01-01T00:33:55Z</time>
      </trkpt>
      <trkpt lat="45.01525000" lon="14.67460000">
        <ele>419.00000</ele>
        <time>2010-01-01T00:34:00Z</time>
      </trkpt>
      <trkpt lat="45.01567000" lon="14.67468000">
        <ele>417.00000</ele>
        <time>2010-01-01T00:34:10Z</time>
      </trkpt>
      <trkpt lat="45.01602000" lon="14.67501000">
        <ele>416.00000</ele>
        <time>2010-01-01T00:34:21Z</time>
      </trkpt>
      <trkpt lat="45.01669000" lon="14.67500000">
        <ele>412.00000</ele>
        <time>2010-01-01T00:34:37Z</time>
      </trkpt>
      <trkpt lat="45.01690000" lon="14.67515000">
        <ele>414.00000</ele>
        <time>2010-01-01T00:34:43Z</time>
      </trkpt>
      <trkpt lat="45.01690000" lon="14.67514000">
        <ele>414.00000</ele>
        <time>2010-01-01T00:34:43Z</time>
      </trkpt>
      <trkpt lat="45.01711000" lon="14.67527000">
        <ele>415.00000</ele>
        <time>2010-01-01T00:34:49Z</time>
      </trkpt>
      <trkpt lat="45.01723000" lon="14.67502000">
        <ele>412.00000</ele>
        <time>2010-01-01T00:34:54Z</time>
      </trkpt>
      <trkpt lat="45.01761000" lon="14.67475000">
        <ele>409.00000</ele>
        <time>2010-01-01T00:35:05Z</time>
      </trkpt>
      <trkpt lat="45.01797000" lon="14.67439000">
        <ele>407.00000</ele>
        <time>2010-01-01T00:35:16Z</time>
      </trkpt>
      <trkpt lat="45.01817000" lon="14.67423000">
        <ele>407.00000</ele>
        <time>2010-01-01T00:35:22Z</time>
      </trkpt>
      <trkpt lat="45.01850000" lon="14.67403000">
        <ele>405.00000</ele>
        <time>2010-01-01T00:35:30Z</time>
      </trkpt>
      <trkpt lat="45.01862000" lon="14.67401000">
        <ele>403.00000</ele>
        <time>2010-01-01T00:35:33Z</time>
      </trkpt>
      <trkpt lat="45.01907000" lon="14.67384000">
        <ele>398.00000</ele>
        <time>2010-01-01T00:35:45Z</time>
      </trkpt>
      <trkpt lat="45.02042000" lon="14.67350000">
        <ele>382.00000</ele>
        <time>2010-01-01T00:36:19Z</time>
      </trkpt>
      <trkpt lat="45.02079000" lon="14.67343000">
        <ele>377.00000</ele>
        <time>2010-01-01T00:36:28Z</time>
      </trkpt>
      <trkpt lat="45.02141000" lon="14.67348000">
        <ele>371.00000</ele>
        <time>2010-01-01T00:36:44Z</time>
      </trkpt>
      <trkpt lat="45.02248000" lon="14.67406000">
        <ele>362.00000</ele>
        <time>2010-01-01T00:37:12Z</time>
      </trkpt>
      <trkpt lat="45.02268000" lon="14.67384000">
        <ele>358.00000</ele>
        <time>2010-01-01T00:37:19Z</time>
      </trkpt>
      <trkpt lat="45.02289000" lon="14.67375000">
        <ele>355.00000</ele>
        <time>2010-01-01T00:37:24Z</time>
      </trkpt>
      <trkpt lat="45.02355000" lon="14.67396000">
        <ele>351.00000</ele>
        <time>2010-01-01T00:37:41Z</time>
      </trkpt>
      <trkpt lat="45.02385000" lon="14.67391000">
        <ele>351.00000</ele>
        <time>2010-01-01T00:37:48Z</time>
      </trkpt>
      <trkpt lat="45.02429000" lon="14.67363000">
        <ele>351.00000</ele>
        <time>2010-01-01T00:38:01Z</time>
      </trkpt>
      <trkpt lat="45.02464000" lon="14.67356000">
        <ele>352.00000</ele>
        <time>2010-01-01T00:38:09Z</time>
      </trkpt>
      <trkpt lat="45.02501000" lon="14.67361000">
        <ele>353.00000</ele>
        <time>2010-01-01T00:38:19Z</time>
      </trkpt>
      <trkpt lat="45.02548000" lon="14.67371000">
        <ele>354.00000</ele>
        <time>2010-01-01T00:38:30Z</time>
      </trkpt>
      <trkpt lat="45.02568000" lon="14.67364000">
        <ele>353.00000</ele>
        <time>2010-01-01T00:38:35Z</time>
      </trkpt>
      <trkpt lat="45.02677000" lon="14.67268000">
        <ele>343.00000</ele>
        <time>2010-01-01T00:39:07Z</time>
      </trkpt>
      <trkpt lat="45.02713000" lon="14.67264000">
        <ele>339.00000</ele>
        <time>2010-01-01T00:39:16Z</time>
      </trkpt>
      <trkpt lat="45.02773000" lon="14.67266000">
        <ele>330.00000</ele>
        <time>2010-01-01T00:39:31Z</time>
      </trkpt>
      <trkpt lat="45.02834000" lon="14.67244000">
        <ele>323.00000</ele>
        <time>2010-01-01T00:39:47Z</time>
      </trkpt>
      <trkpt lat="45.02923000" lon="14.67187000">
        <ele>320.00000</ele>
        <time>2010-01-01T00:40:11Z</time>
      </trkpt>
      <trkpt lat="45.02987730" lon="14.67157600">
        <ele>318.00000</ele>
        <time>2010-01-01T00:40:28Z</time>
      </trkpt>
    </trkseg>
  </trk>
</gpx>

